Aérodrome :
LOGIN :

S'inscrire | Disclaimer

   EN    FR    IT 

 










Légende :    VFR   VFR Marginal   IFR   IFR Intensif   IFR Très Intensif
Visi : 
Plafond : 
>= 8 km
>= 3000ft
5 à 8 km
1000 à 3000 ft
1500m à 5 km
500 à 1000 ft
800 à 1500m
200 à 500 ft
< 800m
< 200 ft
Symboles :   Orages  Brouillard  Fortes neiges  Fortes précipitations  Vent > 20 kt
SIGMETs :   Divers  Orages  Givrage  Turbulence  Onde Orograph.  Cendres Volcan.







- Altitude de l'aérodrome : 2595 ft
- Code IATA : SLM


LESA - Salamanca Matacan

DERNIER METAR :
  • 281000Z 24014KT 210V270 3000 RA SCT008 BKN016 14/14 Q1012

METARs EXPIRÉS :
  • 280943Z 25014KT 220V280 3000 RA SCT018 BKN024 15/14 Q1012
  • 280930Z 23012KT 200V260 6000 +DZ SCT018 BKN024 16/13 Q1012
  • 280900Z 23015KT 9999 BKN024 15/13 Q1012
  • 280830Z 26014KT 220V290 9999 BKN023 15/12 Q1012
  • 280800Z 25015KT 220V280 9999 -DZ BKN023 17/11 Q1012
  • 280730Z 25016KT 220V280 9999 SCT018 SCT025 16/11 Q1012

TAF AMD TAF LESA
Valide du 28 à 09h jusqu'au 29 à 06h UTC


280944Z 2809/2906 23009KT 9999 SCT030 TX22/2814Z TN10/2906Z
TEMPO 2809/2820 25020G38KT
PROB40
TEMPO 2809/2815 3000 RA SHRA SCT030TCU
Pas de NOTAMs connus pour ce terrain.



MET'MAP, la Météo Aéronautique d'un coup d'oeil ! - Copyright ORBIFLY Décembre 2007 - Disclaimer

ORBIFLY MET'MAP TEAM :

Programmation & Développement : Alexandra Zaïnal
Conception & Développement : Baudouin d'Aumeries
Co-Programmation & Développement : Marc-Olivier Méhu
Soutien technique & logistique : Manuel Goepfert

Contact : metmap@orbifly.com




SOURCES & CREDITS :

   NOAA